Time;durP1;ratioP1;P1;durP2;ratioP2;P2;SDS_P1;SDS_P2;PMS_P1;PMS_P2;Temp;Humidity;BMP_temperature;BMP_pressure;BME280_temperature;BME280_humidity;BME280_pressure;Samples;Min_cycle;Max_cycle;Signal;HPM_P1;HPM_P2
2022/05/07 00:01:55;;;;;;;41.53;31.42;;;11.60;99.90;;;;;;5066564;28;20397;-36
2022/05/07 00:04:21;;;;;;;49.97;33.55;;;11.50;99.90;;;;;;5056535;28;20314;-36
2022/05/07 00:06:47;;;;;;;46.35;33.22;;;11.50;99.90;;;;;;5033359;28;20056;-36
2022/05/07 00:09:12;;;;;;;47.45;34.30;;;11.60;99.90;;;;;;5047883;28;20390;-36
2022/05/07 00:11:38;;;;;;;39.33;28.30;;;11.50;99.90;;;;;;5053704;28;20037;-36
2022/05/07 00:14:04;;;;;;;39.72;28.63;;;11.50;99.90;;;;;;5068113;28;20051;-36
2022/05/07 00:19:14;;;;;;;34.30;26.88;;;11.50;99.90;;;;;;5062427;28;20249;-36
2022/05/07 00:21:39;;;;;;;45.28;30.88;;;11.40;99.90;;;;;;5068091;28;20044;-36
2022/05/07 00:24:05;;;;;;;44.60;30.90;;;11.40;99.90;;;;;;5066527;28;20045;-36
2022/05/07 00:26:31;;;;;;;48.60;33.67;;;11.40;99.90;;;;;;5043796;28;20079;-36
2022/05/07 00:28:57;;;;;;;51.47;37.50;;;11.50;99.90;;;;;;5045908;28;20084;-36
2022/05/07 00:31:22;;;;;;;55.88;37.95;;;11.50;99.90;;;;;;5048466;28;20077;-36
2022/05/07 00:33:48;;;;;;;49.65;35.28;;;11.50;99.90;;;;;;5047854;28;20052;-36
2022/05/07 00:36:13;;;;;;;50.10;34.17;;;11.50;99.90;;;;;;5039028;28;20068;-36
2022/05/07 00:38:39;;;;;;;48.97;36.13;;;11.50;99.90;;;;;;5057068;28;20048;-36
2022/05/07 00:41:05;;;;;;;53.17;38.60;;;11.50;99.90;;;;;;5060295;28;20048;-35
2022/05/07 00:43:35;;;;;;;54.85;37.47;;;11.50;99.90;;;;;;5047100;28;20079;-36
2022/05/07 00:46:01;;;;;;;45.80;35.65;;;11.60;99.90;;;;;;5058038;28;20056;-36
2022/05/07 00:48:26;;;;;;;54.42;36.90;;;11.60;99.90;;;;;;5050054;28;20265;-36
2022/05/07 00:53:38;;;;;;;50.47;36.58;;;11.60;99.90;;;;;;5047037;28;20084;-36
2022/05/07 00:56:04;;;;;;;50.92;36.88;;;11.60;99.90;;;;;;5047851;28;20057;-35
2022/05/07 00:58:30;;;;;;;60.67;42.45;;;11.60;99.90;;;;;;5013957;28;20048;-35
2022/05/07 01:00:56;;;;;;;66.65;47.30;;;11.70;99.90;;;;;;5057600;28;20045;-35
2022/05/07 01:03:22;;;;;;;65.13;45.88;;;11.70;99.90;;;;;;5064042;28;20041;-35
2022/05/07 01:05:49;;;;;;;64.65;46.22;;;11.70;99.90;;;;;;5047749;28;20523;-36
2022/05/07 01:08:14;;;;;;;71.10;48.67;;;11.70;99.90;;;;;;5029362;28;20416;-36
2022/05/07 01:10:40;;;;;;;70.80;51.08;;;11.70;99.90;;;;;;5046898;28;20067;-36
2022/05/07 01:13:07;;;;;;;83.03;54.35;;;11.80;99.90;;;;;;5063777;28;20474;-36
2022/05/07 01:15:45;;;;;;;71.13;46.75;;;11.70;99.90;;;;;;5066454;28;20047;-36
2022/05/07 01:18:12;;;;;;;63.08;44.72;;;11.80;99.90;;;;;;5035612;28;20109;-35
2022/05/07 01:20:38;;;;;;;61.72;42.65;;;11.80;99.90;;;;;;5047646;28;20056;-36
2022/05/07 01:23:05;;;;;;;60.13;42.40;;;11.80;99.90;;;;;;5046652;28;20042;-36
2022/05/07 01:25:32;;;;;;;61.00;44.78;;;11.80;99.90;;;;;;5047882;28;20045;-35
2022/05/07 01:27:58;;;;;;;63.08;45.20;;;11.80;99.90;;;;;;5031238;28;20049;-36
2022/05/07 01:30:24;;;;;;;55.72;39.72;;;11.80;99.90;;;;;;5047427;28;20045;-36
2022/05/07 01:32:49;;;;;;;61.95;44.67;;;11.80;99.90;;;;;;5046559;28;20045;-36
2022/05/07 01:35:15;;;;;;;61.15;38.88;;;11.80;99.90;;;;;;5047695;28;20080;-35
2022/05/07 01:37:41;;;;;;;59.33;40.92;;;11.80;99.90;;;;;;5031612;28;20275;-36
2022/05/07 01:40:07;;;;;;;61.03;43.65;;;11.90;99.90;;;;;;5046104;28;20065;-36
2022/05/07 01:42:33;;;;;;;55.50;41.38;;;11.80;99.90;;;;;;5045306;28;20276;-36
2022/05/07 01:44:59;;;;;;;56.63;39.50;;;11.80;99.90;;;;;;5061442;28;20049;-36
2022/05/07 01:50:09;;;;;;;54.97;38.95;;;11.80;99.90;;;;;;5050755;28;20067;-36
2022/05/07 01:52:35;;;;;;;57.33;39.53;;;11.80;99.90;;;;;;5046440;28;20507;-36
2022/05/07 01:55:00;;;;;;;48.83;36.90;;;11.80;99.90;;;;;;5048014;28;20343;-36
2022/05/07 01:57:26;;;;;;;55.83;38.28;;;11.90;99.90;;;;;;5044251;28;20344;-36
2022/05/07 01:59:52;;;;;;;54.33;39.17;;;11.90;99.90;;;;;;5063672;28;20103;-36
2022/05/07 02:02:17;;;;;;;55.25;37.30;;;11.90;99.90;;;;;;5046788;28;20044;-36
2022/05/07 02:04:43;;;;;;;53.00;36.60;;;11.80;99.90;;;;;;5047761;28;20037;-36
2022/05/07 02:07:09;;;;;;;48.33;35.97;;;11.90;99.90;;;;;;5039591;28;20106;-36
2022/05/07 02:09:38;;;;;;;59.25;38.58;;;11.90;99.90;;;;;;5066620;28;20131;-36
2022/05/07 02:12:04;;;;;;;59.88;39.47;;;11.90;99.90;;;;;;5067383;28;20076;-36
2022/05/07 02:14:30;;;;;;;65.13;41.58;;;11.90;99.90;;;;;;5049803;28;20140;-36
2022/05/07 02:16:56;;;;;;;63.10;43.00;;;11.90;99.90;;;;;;5031814;28;20110;-36
2022/05/07 02:19:21;;;;;;;60.45;40.50;;;11.90;99.90;;;;;;5061210;28;20834;-36
2022/05/07 02:21:47;;;;;;;62.45;42.85;;;12.00;99.90;;;;;;5069874;28;20103;-36
2022/05/07 02:24:13;;;;;;;74.13;50.60;;;12.00;99.90;;;;;;5069567;28;20409;-36
2022/05/07 02:26:38;;;;;;;65.43;44.15;;;12.00;99.90;;;;;;5045557;28;20041;-36
2022/05/07 02:29:04;;;;;;;74.75;49.25;;;12.00;99.90;;;;;;5048111;28;20419;-36
2022/05/07 02:31:30;;;;;;;72.57;48.35;;;12.00;99.90;;;;;;5049069;28;20060;-36
2022/05/07 02:33:56;;;;;;;73.65;50.88;;;12.00;99.90;;;;;;5049488;28;20047;-36
2022/05/07 02:36:21;;;;;;;68.68;44.15;;;12.00;99.90;;;;;;5039826;28;20404;-36
2022/05/07 02:38:47;;;;;;;72.43;45.00;;;12.00;99.90;;;;;;5043974;28;20045;-36
2022/05/07 02:43:57;;;;;;;73.43;48.40;;;12.10;99.90;;;;;;5055048;28;20086;-36
2022/05/07 02:46:23;;;;;;;69.05;45.90;;;12.10;99.90;;;;;;5057946;28;20053;-37
2022/05/07 02:48:48;;;;;;;63.72;43.33;;;12.10;99.90;;;;;;5046473;28;20187;-36
2022/05/07 02:51:14;;;;;;;66.43;43.40;;;12.10;99.90;;;;;;5050689;28;20049;-36
2022/05/07 02:53:40;;;;;;;62.35;41.78;;;12.10;99.90;;;;;;5048962;28;20073;-36
2022/05/07 02:56:07;;;;;;;68.25;44.42;;;12.10;99.90;;;;;;5048662;28;20082;-36
2022/05/07 02:58:33;;;;;;;60.63;43.28;;;12.20;99.90;;;;;;5053076;28;20040;-36
2022/05/07 03:00:58;;;;;;;61.58;42.33;;;12.10;99.90;;;;;;5056151;28;20689;-36
2022/05/07 03:03:25;;;;;;;60.78;40.78;;;12.20;99.90;;;;;;5048995;28;20099;-36
2022/05/07 03:05:52;;;;;;;60.22;41.67;;;12.20;99.90;;;;;;5048633;28;20048;-36
2022/05/07 03:08:18;;;;;;;56.75;40.03;;;12.20;99.90;;;;;;5033763;28;20048;-36
2022/05/07 03:10:43;;;;;;;56.78;38.97;;;12.20;99.90;;;;;;5048319;28;20174;-36
2022/05/07 03:13:09;;;;;;;50.42;36.08;;;12.30;99.90;;;;;;5053132;28;20052;-36
2022/05/07 03:15:35;;;;;;;55.13;37.75;;;12.20;99.90;;;;;;5068102;28;20041;-36
2022/05/07 03:18:00;;;;;;;51.92;36.10;;;12.20;99.90;;;;;;5036372;28;20501;-36
2022/05/07 03:20:26;;;;;;;47.80;33.35;;;12.20;99.90;;;;;;5060082;28;20071;-36
2022/05/07 03:22:51;;;;;;;48.60;32.80;;;12.20;99.90;;;;;;5069010;28;20075;-36
2022/05/07 03:25:17;;;;;;;45.33;33.13;;;12.20;99.90;;;;;;5068466;28;20052;-36
2022/05/07 03:27:43;;;;;;;54.88;37.40;;;12.20;99.90;;;;;;5033824;28;20103;-36
2022/05/07 03:30:09;;;;;;;51.78;35.58;;;12.20;99.90;;;;;;5047933;28;20052;-36
2022/05/07 03:32:35;;;;;;;52.67;37.78;;;12.20;99.90;;;;;;5049269;28;20052;-36
2022/05/07 03:35:02;;;;;;;53.03;36.72;;;12.20;99.90;;;;;;5048692;28;20496;-36
2022/05/07 03:37:28;;;;;;;54.33;37.95;;;12.20;99.90;;;;;;5036956;28;20495;-36
2022/05/07 03:39:54;;;;;;;57.17;38.63;;;12.20;99.90;;;;;;5069165;28;20091;-36
2022/05/07 03:42:20;;;;;;;57.92;39.95;;;12.20;99.90;;;;;;5068568;28;20044;-36
2022/05/07 03:48:32;;;;;;;54.58;39.58;;;12.20;99.90;;;;;;5027916;28;20179;-36
2022/05/07 03:50:59;;;;;;;56.95;38.90;;;12.20;99.90;;;;;;5044065;28;20538;-35
2022/05/07 03:53:32;;;;;;;56.17;39.72;;;12.20;99.90;;;;;;5047566;28;20041;-36
2022/05/07 03:56:02;;;;;;;56.35;40.80;;;12.20;99.90;;;;;;5054718;28;20059;-36
2022/05/07 03:58:29;;;;;;;55.40;38.67;;;12.20;99.90;;;;;;5044385;28;20048;-36
2022/05/07 04:00:55;;;;;;;51.97;36.75;;;12.20;99.90;;;;;;5056247;28;20117;-36
2022/05/07 04:03:22;;;;;;;48.92;34.65;;;12.20;99.90;;;;;;5064915;28;20052;-36
2022/05/07 04:05:48;;;;;;;50.10;35.80;;;12.20;99.90;;;;;;5047021;28;20037;-36
2022/05/07 04:08:14;;;;;;;47.78;35.10;;;12.20;99.90;;;;;;5032397;28;20041;-36
2022/05/07 04:10:42;;;;;;;50.78;35.45;;;12.20;99.90;;;;;;5048182;28;20060;-36
2022/05/07 04:13:10;;;;;;;49.15;35.50;;;12.20;99.90;;;;;;5046122;28;20114;-36
2022/05/07 04:15:39;;;;;;;44.80;34.45;;;12.20;99.90;;;;;;5046034;28;20543;-36
2022/05/07 04:18:08;;;;;;;53.00;36.13;;;12.20;99.90;;;;;;5031752;28;20041;-36
2022/05/07 04:20:34;;;;;;;47.88;34.90;;;12.20;99.90;;;;;;5047805;28;20068;-35
2022/05/07 04:23:00;;;;;;;45.00;34.70;;;12.30;99.90;;;;;;5066469;28;20127;-36
2022/05/07 04:25:26;;;;;;;46.45;35.55;;;12.20;99.90;;;;;;5047386;28;20041;-36
2022/05/07 04:27:53;;;;;;;49.83;38.22;;;12.20;99.90;;;;;;5032331;28;20051;-36
2022/05/07 04:30:20;;;;;;;45.33;34.97;;;12.20;99.90;;;;;;5048194;28;20395;-36
2022/05/07 04:32:46;;;;;;;51.13;35.22;;;12.20;99.90;;;;;;5047624;28;20045;-36
2022/05/07 04:35:11;;;;;;;51.75;36.65;;;12.20;99.90;;;;;;5047840;28;20492;-36
2022/05/07 04:37:37;;;;;;;48.22;35.53;;;12.20;99.90;;;;;;5051967;28;20061;-36
2022/05/07 04:40:03;;;;;;;47.75;35.83;;;12.30;99.90;;;;;;5068059;28;20045;-36
2022/05/07 04:42:29;;;;;;;44.85;34.72;;;12.30;99.90;;;;;;5066853;28;20093;-36
2022/05/07 04:44:55;;;;;;;51.42;34.90;;;12.20;99.90;;;;;;5052892;28;20132;-35
2022/05/07 04:47:20;;;;;;;48.42;35.95;;;12.20;99.90;;;;;;5032106;28;20044;-36
2022/05/07 04:49:46;;;;;;;49.85;36.03;;;12.30;99.90;;;;;;5040119;28;20057;-36
2022/05/07 04:52:12;;;;;;;49.50;38.03;;;12.40;99.90;;;;;;5044271;28;20124;-36
2022/05/07 04:54:38;;;;;;;53.20;38.30;;;12.30;99.90;;;;;;5048208;28;20119;-35
2022/05/07 04:57:04;;;;;;;51.50;36.65;;;12.30;99.90;;;;;;5036349;28;20388;-35
2022/05/07 04:59:30;;;;;;;50.53;37.35;;;12.30;99.90;;;;;;5066421;28;20044;-35
2022/05/07 05:01:56;;;;;;;52.92;38.03;;;12.30;99.90;;;;;;5047408;28;20377;-36
2022/05/07 05:04:22;;;;;;;48.83;36.85;;;12.30;99.90;;;;;;5045922;28;20420;-36
2022/05/07 05:06:47;;;;;;;53.28;37.78;;;12.40;99.90;;;;;;5038857;28;20104;-36
2022/05/07 05:09:13;;;;;;;57.10;39.33;;;12.40;99.90;;;;;;5065452;28;20048;-35
2022/05/07 05:11:39;;;;;;;51.88;38.30;;;12.40;99.90;;;;;;5067664;28;20526;-35
2022/05/07 05:16:49;;;;;;;56.80;38.95;;;12.40;99.90;;;;;;5052451;28;20083;-36
2022/05/07 05:19:16;;;;;;;58.97;40.38;;;12.50;99.90;;;;;;5047270;28;20136;-36
2022/05/07 05:21:41;;;;;;;50.63;36.92;;;12.40;99.90;;;;;;5045367;28;20064;-35
2022/05/07 05:24:07;;;;;;;55.47;40.08;;;12.40;99.90;;;;;;5046518;28;20044;-35
2022/05/07 05:26:33;;;;;;;49.00;36.97;;;12.40;99.90;;;;;;5033868;28;20045;-36
2022/05/07 05:28:59;;;;;;;58.22;41.15;;;12.50;99.90;;;;;;5044906;28;20052;-35
2022/05/07 05:31:25;;;;;;;55.50;40.55;;;12.60;99.90;;;;;;5055524;28;20064;-35
2022/05/07 05:33:50;;;;;;;49.88;38.50;;;12.40;99.90;;;;;;5063181;28;20037;-35
2022/05/07 05:36:16;;;;;;;51.13;38.72;;;12.50;99.90;;;;;;5036928;28;20144;-35
2022/05/07 05:38:42;;;;;;;49.35;37.55;;;12.50;99.90;;;;;;5040860;28;20156;-35
2022/05/07 05:41:08;;;;;;;49.03;37.33;;;12.50;99.90;;;;;;5046355;28;20056;-35
2022/05/07 05:43:33;;;;;;;51.40;39.05;;;12.60;99.90;;;;;;5044344;28;20033;-35
2022/05/07 05:45:59;;;;;;;50.13;37.58;;;12.60;99.90;;;;;;5046337;28;20061;-35
2022/05/07 05:48:29;;;;;;;46.58;36.13;;;12.60;99.90;;;;;;5029327;28;20086;-35
2022/05/07 05:50:55;;;;;;;51.45;36.75;;;12.70;99.90;;;;;;5044851;28;20106;-35
2022/05/07 05:53:21;;;;;;;53.72;40.03;;;12.60;99.90;;;;;;5045237;28;20416;-35
2022/05/07 05:55:47;;;;;;;51.22;38.47;;;12.80;99.90;;;;;;5048356;28;20045;-36
2022/05/07 05:58:13;;;;;;;53.42;39.13;;;12.80;99.90;;;;;;5033973;28;20037;-35
2022/05/07 06:00:39;;;;;;;56.20;40.03;;;12.80;99.90;;;;;;5050440;28;20111;-35
2022/05/07 06:03:04;;;;;;;56.30;40.78;;;12.90;99.90;;;;;;5048951;28;20091;-35
2022/05/07 06:05:30;;;;;;;52.33;38.97;;;12.90;99.90;;;;;;5050113;28;20087;-35
2022/05/07 06:07:56;;;;;;;56.00;40.85;;;13.00;99.90;;;;;;5033728;28;20045;-36
2022/05/07 06:10:22;;;;;;;54.03;40.72;;;13.10;99.90;;;;;;5050367;28;20041;-35
2022/05/07 06:12:48;;;;;;;55.25;39.15;;;13.20;99.90;;;;;;5049339;28;20049;-36
2022/05/07 06:15:13;;;;;;;55.40;41.10;;;13.20;99.90;;;;;;5050235;28;20127;-36
2022/05/07 06:17:39;;;;;;;50.72;38.25;;;13.30;99.90;;;;;;5034746;28;20092;-36
2022/05/07 06:20:06;;;;;;;49.70;36.65;;;13.40;99.90;;;;;;5051612;28;20051;-36
2022/05/07 06:22:32;;;;;;;43.50;34.55;;;13.40;99.90;;;;;;5048939;28;20061;-36
2022/05/07 06:27:42;;;;;;;49.95;36.88;;;13.60;99.90;;;;;;5031699;28;20079;-36
2022/05/07 06:30:08;;;;;;;51.75;37.83;;;13.70;99.90;;;;;;5050120;28;20037;-36
2022/05/07 06:32:40;;;;;;;48.60;36.72;;;13.70;99.90;;;;;;5048087;28;20049;-36
2022/05/07 06:35:07;;;;;;;47.58;39.25;;;13.80;99.90;;;;;;5050020;28;20044;-36
2022/05/07 06:37:34;;;;;;;51.30;37.53;;;13.80;99.90;;;;;;5033589;28;20523;-37
2022/05/07 06:40:00;;;;;;;47.42;36.95;;;13.90;99.90;;;;;;5049820;28;20502;-36
2022/05/07 06:42:26;;;;;;;47.90;36.45;;;14.00;99.90;;;;;;5048375;28;20590;-36
2022/05/07 06:44:52;;;;;;;46.20;34.95;;;14.10;99.90;;;;;;5048373;28;20088;-36
2022/05/07 06:47:18;;;;;;;45.25;34.97;;;14.10;99.90;;;;;;5035816;28;20124;-36
2022/05/07 06:49:44;;;;;;;42.22;33.60;;;14.20;99.90;;;;;;5049069;28;20116;-36
2022/05/07 06:52:10;;;;;;;47.25;34.88;;;14.30;99.90;;;;;;5048063;28;20048;-36
2022/05/07 06:54:36;;;;;;;49.47;35.08;;;14.30;99.90;;;;;;5050152;28;20094;-36
2022/05/07 06:57:03;;;;;;;46.17;32.72;;;14.30;99.90;;;;;;5034780;28;20126;-36
2022/05/07 06:59:32;;;;;;;43.30;33.00;;;14.40;99.90;;;;;;5047958;28;20136;-36
2022/05/07 07:01:58;;;;;;;44.92;32.10;;;14.50;99.90;;;;;;5050577;28;20041;-36
2022/05/07 07:04:27;;;;;;;41.92;32.63;;;14.50;99.90;;;;;;5049278;28;20053;-36
2022/05/07 07:06:52;;;;;;;43.72;31.83;;;14.60;99.90;;;;;;5030992;28;20048;-37
2022/05/07 07:09:18;;;;;;;44.95;31.55;;;14.60;99.90;;;;;;5047571;28;20056;-36
2022/05/07 07:11:44;;;;;;;43.58;32.67;;;14.70;99.90;;;;;;5047327;28;20471;-36
2022/05/07 07:14:10;;;;;;;43.50;33.85;;;14.80;99.90;;;;;;5048205;28;20052;-36
2022/05/07 07:16:36;;;;;;;47.38;35.97;;;14.80;99.90;;;;;;5035616;28;20045;-36
2022/05/07 07:19:02;;;;;;;47.95;35.33;;;14.90;99.90;;;;;;5045861;28;20056;-36
2022/05/07 07:21:28;;;;;;;46.83;34.58;;;15.00;99.90;;;;;;5049845;28;20156;-36
2022/05/07 07:23:53;;;;;;;48.25;34.97;;;15.10;99.90;;;;;;5047314;28;20060;-36
2022/05/07 07:26:19;;;;;;;49.55;35.75;;;15.10;99.90;;;;;;5036304;28;20040;-37
2022/05/07 07:28:45;;;;;;;53.25;38.75;;;15.20;99.90;;;;;;5043718;28;20037;-36
2022/05/07 07:31:11;;;;;;;60.03;41.92;;;15.30;99.90;;;;;;5049741;28;20044;-36
2022/05/07 07:33:38;;;;;;;69.50;46.55;;;15.30;99.90;;;;;;5048128;28;20207;-36
2022/05/07 07:36:09;;;;;;;71.53;48.67;;;15.40;99.90;;;;;;5063899;28;20051;-36
2022/05/07 07:38:37;;;;;;;72.85;49.22;;;15.50;99.90;;;;;;5060820;28;20603;-37
2022/05/07 07:41:03;;;;;;;65.60;45.72;;;15.50;99.90;;;;;;5058301;28;20420;-36
2022/05/07 07:43:29;;;;;;;69.50;48.03;;;15.50;99.90;;;;;;5068507;28;20674;-36
2022/05/07 07:48:39;;;;;;;69.05;48.08;;;15.50;99.90;;;;;;5042520;28;20451;-37
2022/05/07 07:51:06;;;;;;;65.03;47.05;;;15.60;99.90;;;;;;5047920;28;20041;-37
2022/05/07 07:53:32;;;;;;;67.85;47.05;;;15.60;99.90;;;;;;5047549;28;20040;-37
2022/05/07 07:55:58;;;;;;;66.97;47.53;;;15.60;99.90;;;;;;5048329;28;20114;-36
2022/05/07 07:58:24;;;;;;;67.88;46.42;;;15.60;99.90;;;;;;5031805;28;20040;-36
2022/05/07 08:00:49;;;;;;;61.75;43.60;;;15.60;99.90;;;;;;5047289;28;20470;-35
2022/05/07 08:03:17;;;;;;;65.55;45.35;;;15.60;99.90;;;;;;5047213;28;20041;-35
2022/05/07 08:05:45;;;;;;;62.30;43.88;;;15.50;99.90;;;;;;5056292;28;20521;-35
2022/05/07 08:13:43;;;;;;;65.75;45.95;;;15.50;99.90;;;;;;5036074;28;20080;-35
2022/05/07 08:16:10;;;;;;;62.00;43.80;;;15.50;99.90;;;;;;5057377;28;20048;-36
2022/05/07 08:18:37;;;;;;;64.20;45.30;;;15.50;99.90;;;;;;5059031;28;20385;-35
2022/05/07 08:21:05;;;;;;;62.00;44.88;;;15.50;99.90;;;;;;5068898;28;20059;-35
2022/05/07 08:23:30;;;;;;;63.70;45.15;;;15.50;99.90;;;;;;5067734;28;20044;-35
2022/05/07 08:25:56;;;;;;;64.55;44.90;;;15.50;99.90;;;;;;5062069;28;20041;-35
2022/05/07 08:28:24;;;;;;;65.72;45.40;;;15.50;99.90;;;;;;5031844;28;20092;-35
2022/05/07 08:30:50;;;;;;;65.80;45.53;;;15.50;99.90;;;;;;5048280;28;20056;-36
2022/05/07 08:33:22;;;;;;;67.10;47.13;;;15.50;99.90;;;;;;5047325;28;20484;-35
2022/05/07 08:35:48;;;;;;;65.13;46.63;;;15.60;99.90;;;;;;5048614;28;20048;-36
2022/05/07 08:38:14;;;;;;;68.57;49.42;;;15.60;99.90;;;;;;5032499;28;20075;-36
2022/05/07 08:40:41;;;;;;;72.10;48.72;;;15.60;99.90;;;;;;5048017;28;20152;-36
2022/05/07 08:43:07;;;;;;;72.55;48.55;;;15.60;99.90;;;;;;5047014;28;20044;-36
2022/05/07 08:45:34;;;;;;;66.25;48.13;;;15.70;99.90;;;;;;5054555;28;20056;-36
2022/05/07 08:48:00;;;;;;;67.75;46.78;;;15.70;99.90;;;;;;5032302;28;20106;-36
2022/05/07 08:50:26;;;;;;;70.25;48.20;;;15.70;99.90;;;;;;5047708;28;20504;-36
2022/05/07 08:52:53;;;;;;;68.57;48.17;;;15.80;99.90;;;;;;5047554;28;20415;-36
2022/05/07 08:55:20;;;;;;;67.53;46.40;;;15.80;99.90;;;;;;5047679;28;20114;-36
2022/05/07 08:57:48;;;;;;;71.00;47.25;;;15.80;99.90;;;;;;5030656;28;20049;-36
2022/05/07 09:00:17;;;;;;;64.22;46.13;;;15.90;99.90;;;;;;5051280;28;20029;-36
2022/05/07 09:02:48;;;;;;;61.97;44.08;;;15.90;99.90;;;;;;5067614;28;20107;-36
2022/05/07 09:05:18;;;;;;;64.97;45.35;;;15.90;99.90;;;;;;5052083;28;20051;-36
2022/05/07 09:07:57;;;;;;;70.30;44.50;;;16.00;99.90;;;;;;5044042;28;20461;-36
2022/05/07 09:10:28;;;;;;;66.35;43.13;;;16.00;99.90;;;;;;5066803;28;20052;-36
2022/05/07 09:13:14;;;;;;;65.13;43.15;;;16.00;99.90;;;;;;5066711;28;20048;-36
2022/05/07 09:15:53;;;;;;;62.95;42.97;;;16.10;99.90;;;;;;5066970;28;20057;-36
2022/05/07 09:18:20;;;;;;;61.72;42.38;;;16.10;99.90;;;;;;5051517;28;20114;-36
2022/05/07 09:21:28;;;;;;;57.35;40.80;;;16.20;99.90;;;;;;5067264;28;20044;-36
2022/05/07 09:23:59;;;;;;;57.30;40.88;;;16.20;99.90;;;;;;5050367;28;20045;-36
2022/05/07 09:26:26;;;;;;;56.63;41.05;;;16.20;99.90;;;;;;5034872;28;20164;-36
2022/05/07 09:28:53;;;;;;;55.67;38.20;;;16.30;99.90;;;;;;5044601;28;20096;-36
2022/05/07 09:31:26;;;;;;;54.35;40.28;;;16.30;99.90;;;;;;5051409;28;20049;-36
2022/05/07 09:33:52;;;;;;;50.67;38.42;;;16.40;99.90;;;;;;5051259;28;20538;-36
2022/05/07 09:36:18;;;;;;;58.35;40.30;;;16.40;99.90;;;;;;5040874;28;20048;-37
2022/05/07 09:38:44;;;;;;;53.13;38.03;;;16.50;99.90;;;;;;5046683;28;20045;-36
2022/05/07 09:41:20;;;;;;;51.28;37.30;;;16.50;99.90;;;;;;5051399;28;20514;-36
2022/05/07 09:43:49;;;;;;;53.97;38.85;;;16.60;99.90;;;;;;5050490;28;20041;-36
2022/05/07 09:46:16;;;;;;;55.17;38.03;;;16.60;99.90;;;;;;5041879;28;20044;-37
2022/05/07 09:48:44;;;;;;;59.08;39.83;;;16.70;99.90;;;;;;5045865;28;20576;-36
2022/05/07 09:51:11;;;;;;;54.33;37.45;;;16.70;99.90;;;;;;5051058;28;20075;-36
2022/05/07 09:59:06;;;;;;;55.83;40.22;;;16.80;99.90;;;;;;5036666;28;20143;-36
2022/05/07 10:01:31;;;;;;;55.45;40.42;;;16.90;99.90;;;;;;5064406;28;20044;-36
2022/05/07 10:04:15;;;;;;;56.20;40.33;;;17.00;99.90;;;;;;5050169;28;20061;-37
2022/05/07 10:06:49;;;;;;;59.42;39.92;;;17.00;99.90;;;;;;5043579;28;20097;-36
2022/05/07 10:09:40;;;;;;;60.50;42.60;;;17.00;99.90;;;;;;5070402;28;20049;-36
2022/05/07 10:12:08;;;;;;;68.88;48.63;;;17.00;99.90;;;;;;5070292;28;20056;-37
2022/05/07 10:14:34;;;;;;;73.90;49.63;;;17.00;99.90;;;;;;5069172;28;20041;-36
2022/05/07 10:17:07;;;;;;;72.45;49.60;;;17.00;99.90;;;;;;5034357;28;20131;-36
2022/05/07 10:19:44;;;;;;;71.32;49.67;;;17.00;99.90;;;;;;5050116;28;20041;-36
2022/05/07 10:22:24;;;;;;;74.25;50.33;;;17.10;99.90;;;;;;5049956;28;20037;-37
2022/05/07 10:25:03;;;;;;;71.32;48.97;;;17.10;99.90;;;;;;5037681;28;20657;-36
2022/05/07 10:27:43;;;;;;;70.25;49.13;;;17.10;99.90;;;;;;5034142;28;20044;-37
2022/05/07 10:30:09;;;;;;;73.20;50.33;;;17.10;99.90;;;;;;5050441;28;20124;-36
2022/05/07 10:32:54;;;;;;;68.60;48.33;;;17.20;99.90;;;;;;5047970;28;20227;-39
2022/05/07 10:35:39;;;;;;;65.28;46.25;;;17.10;99.90;;;;;;5046325;28;20782;-37
2022/05/07 10:38:17;;;;;;;66.25;46.50;;;17.20;99.90;;;;;;5029521;28;20587;-37
2022/05/07 10:40:56;;;;;;;63.20;42.80;;;17.20;99.90;;;;;;5058789;28;20826;-36
2022/05/07 10:43:45;;;;;;;60.38;42.33;;;17.20;99.90;;;;;;5044061;28;20052;-36
2022/05/07 10:46:14;;;;;;;57.75;40.67;;;17.20;99.90;;;;;;5036049;28;20067;-37
2022/05/07 10:49:18;;;;;;;55.65;39.90;;;17.20;99.90;;;;;;5038008;28;20155;-36
2022/05/07 10:51:53;;;;;;;52.15;37.63;;;17.30;99.90;;;;;;5038715;28;20061;-36
2022/05/07 10:54:24;;;;;;;51.67;37.15;;;17.30;99.90;;;;;;5045382;28;20144;-37
2022/05/07 10:56:51;;;;;;;52.10;36.53;;;17.30;99.90;;;;;;5028496;28;20048;-37
2022/05/07 10:59:20;;;;;;;49.45;35.97;;;17.30;99.90;;;;;;5045512;28;20048;-37
2022/05/07 11:01:46;;;;;;;47.63;33.22;;;17.40;99.90;;;;;;5044568;28;20118;-37
2022/05/07 11:04:13;;;;;;;46.13;33.63;;;17.40;99.90;;;;;;5043395;28;20045;-37
2022/05/07 11:06:48;;;;;;;42.72;30.33;;;17.40;99.90;;;;;;5030761;28;20131;-37
2022/05/07 11:09:22;;;;;;;35.97;27.00;;;17.50;99.90;;;;;;5045108;28;20061;-37
2022/05/07 11:11:52;;;;;;;31.75;23.25;;;17.50;99.90;;;;;;5045230;28;20045;-37
2022/05/07 11:14:24;;;;;;;25.70;19.33;;;17.50;99.90;;;;;;5045279;28;20041;-37
2022/05/07 11:16:51;;;;;;;22.08;15.90;;;17.50;99.90;;;;;;5031463;28;20500;-37
2022/05/07 11:19:46;;;;;;;15.95;11.70;;;17.60;99.90;;;;;;5043396;28;20048;-37
2022/05/07 11:22:13;;;;;;;11.88;9.95;;;17.60;99.90;;;;;;5034834;28;20132;-37
2022/05/07 11:24:39;;;;;;;12.57;9.00;;;17.60;99.90;;;;;;5046226;28;20056;-37
2022/05/07 11:27:06;;;;;;;12.75;8.45;;;17.60;99.90;;;;;;5030644;28;20633;-37
2022/05/07 11:29:34;;;;;;;12.05;8.48;;;17.70;99.90;;;;;;5031236;28;20527;-37
2022/05/07 11:32:05;;;;;;;14.25;10.13;;;17.70;99.90;;;;;;5038819;28;20049;-37
2022/05/07 11:34:34;;;;;;;14.10;10.15;;;17.60;99.90;;;;;;5045419;28;20411;-37
2022/05/07 11:37:23;;;;;;;18.15;12.43;;;17.70;99.90;;;;;;5007206;28;20673;-35
2022/05/07 11:39:53;;;;;;;15.75;11.85;;;17.70;99.90;;;;;;5021394;28;20056;-35
2022/05/07 11:42:31;;;;;;;14.13;10.85;;;17.70;99.90;;;;;;5020897;28;20052;-35
2022/05/07 11:47:51;;;;;;;15.15;11.65;;;17.70;99.90;;;;;;5004554;28;20102;-35
2022/05/07 11:50:34;;;;;;;16.85;12.55;;;17.80;99.90;;;;;;5021395;28;20084;-35
2022/05/07 11:53:14;;;;;;;17.13;12.30;;;17.80;99.90;;;;;;5022694;28;20167;-35
2022/05/07 11:55:40;;;;;;;15.77;11.40;;;17.80;99.90;;;;;;5018361;28;20045;-35
2022/05/07 11:58:17;;;;;;;14.55;10.75;;;17.90;99.90;;;;;;5001812;28;20052;-35
2022/05/07 12:00:47;;;;;;;16.02;10.90;;;17.90;99.90;;;;;;5012018;28;20168;-36
2022/05/07 12:03:22;;;;;;;12.57;9.57;;;17.90;99.90;;;;;;5021481;28;20076;-35
2022/05/07 12:05:50;;;;;;;15.77;9.65;;;18.00;99.90;;;;;;5019501;28;20118;-35
2022/05/07 12:08:33;;;;;;;11.13;9.07;;;18.00;99.90;;;;;;4997643;28;20405;-35
2022/05/07 12:10:59;;;;;;;16.90;9.80;;;18.00;99.90;;;;;;5019382;28;20048;-35
2022/05/07 12:13:26;;;;;;;13.80;9.30;;;18.00;99.90;;;;;;5015052;28;20122;-35
2022/05/07 12:18:39;;;;;;;13.98;10.52;;;18.10;99.90;;;;;;5014077;28;20052;-35
2022/05/07 12:21:05;;;;;;;14.73;10.50;;;18.10;99.90;;;;;;5004354;28;20056;-36
2022/05/07 12:31:44;;;;;;;20.85;13.32;;;18.10;99.90;;;;;;5016864;28;20170;-36
2022/05/07 12:34:10;;;;;;;21.85;16.83;;;18.00;99.90;;;;;;5015990;28;20057;-36
2022/05/07 12:36:35;;;;;;;21.08;16.15;;;18.00;99.90;;;;;;5009636;28;20060;-35
2022/05/07 12:39:01;;;;;;;20.08;14.38;;;18.00;99.90;;;;;;5019161;28;20914;-36
2022/05/07 12:41:27;;;;;;;17.70;13.63;;;18.00;99.90;;;;;;5014550;28;20051;-36
2022/05/07 12:43:54;;;;;;;18.90;14.05;;;17.90;99.90;;;;;;5014600;28;20044;-35
2022/05/07 12:46:20;;;;;;;19.02;13.93;;;17.90;99.90;;;;;;5004532;28;20063;-35
2022/05/07 12:48:46;;;;;;;19.58;15.70;;;17.90;99.90;;;;;;5003624;28;20067;-36
2022/05/07 12:51:12;;;;;;;21.58;14.85;;;17.90;99.90;;;;;;5021496;28;20118;-36
2022/05/07 12:53:38;;;;;;;20.77;15.45;;;17.90;99.90;;;;;;5007177;28;20057;-36
2022/05/07 12:56:07;;;;;;;18.27;14.50;;;17.90;99.90;;;;;;5017970;28;20053;-36
2022/05/07 12:58:34;;;;;;;17.58;13.15;;;17.90;99.90;;;;;;5007607;28;20049;-36
2022/05/07 13:01:00;;;;;;;16.63;12.77;;;17.90;99.90;;;;;;5018738;28;20404;-35
2022/05/07 13:03:26;;;;;;;13.77;10.65;;;18.00;99.90;;;;;;5002332;28;20146;-36
2022/05/07 13:05:52;;;;;;;11.18;7.90;;;18.00;99.90;;;;;;5015147;28;20033;-36
2022/05/07 13:08:18;;;;;;;12.50;8.68;;;18.10;99.90;;;;;;5004100;28;20087;-35
2022/05/07 13:10:44;;;;;;;10.27;8.57;;;18.20;99.90;;;;;;5015579;28;20056;-35
2022/05/07 13:13:10;;;;;;;12.43;9.38;;;18.20;99.90;;;;;;5003272;28;20056;-35
2022/05/07 13:15:36;;;;;;;11.73;9.25;;;18.30;99.90;;;;;;5022301;28;20080;-36
2022/05/07 13:18:02;;;;;;;11.02;9.43;;;18.30;99.90;;;;;;5002585;28;20064;-36
2022/05/07 13:20:28;;;;;;;11.75;8.77;;;18.30;99.90;;;;;;5019631;28;20072;-36